Time;durP1;ratioP1;P1;durP2;ratioP2;P2;SDS_P1;SDS_P2;PMS_P1;PMS_P2;Temp;Humidity;BMP_temperature;BMP_pressure;BME280_temperature;BME280_humidity;BME280_pressure;Samples;Min_cycle;Max_cycle;Signal;HPM_P1;HPM_P2
2022/07/12 00:00:10;;;;;;;1.35;0.70;;;16.50;99.90;;;;;;4979805;28;20048;-75
2022/07/12 00:02:36;;;;;;;1.08;0.60;;;16.50;99.90;;;;;;4963744;28;20456;-75
2022/07/12 00:05:03;;;;;;;0.68;0.40;;;16.50;99.90;;;;;;4981035;28;20041;-75
2022/07/12 00:07:29;;;;;;;1.40;0.60;;;16.50;99.90;;;;;;4964433;28;20076;-75
2022/07/12 00:09:56;;;;;;;0.77;0.50;;;16.40;99.90;;;;;;4977075;28;21375;-74
2022/07/12 00:12:22;;;;;;;2.45;0.68;;;16.40;99.90;;;;;;4977173;28;20025;-75
2022/07/12 00:14:49;;;;;;;0.88;0.50;;;16.40;99.90;;;;;;4979575;28;20064;-75
2022/07/12 00:17:18;;;;;;;1.00;0.50;;;16.40;99.90;;;;;;4979519;28;20029;-75
2022/07/12 00:19:45;;;;;;;0.77;0.50;;;16.30;99.90;;;;;;4977666;28;20048;-75
2022/07/12 00:22:12;;;;;;;0.82;0.60;;;16.30;99.90;;;;;;4952975;28;20036;-75
2022/07/12 00:24:38;;;;;;;1.05;0.60;;;16.30;99.90;;;;;;4963480;28;20025;-75
2022/07/12 00:27:05;;;;;;;3.63;0.70;;;16.30;99.90;;;;;;4996808;28;20068;-74
2022/07/12 00:29:31;;;;;;;0.80;0.50;;;16.20;99.90;;;;;;4978074;28;20037;-75
2022/07/12 00:31:57;;;;;;;0.85;0.40;;;16.20;99.90;;;;;;4993162;28;20021;-75
2022/07/12 00:34:24;;;;;;;1.13;0.60;;;16.20;99.90;;;;;;4976768;28;20036;-75
2022/07/12 00:36:50;;;;;;;1.17;0.60;;;16.20;99.90;;;;;;4979780;28;20021;-75
2022/07/12 00:39:17;;;;;;;1.02;0.50;;;16.10;99.90;;;;;;4995519;28;20045;-75
2022/07/12 00:41:47;;;;;;;1.00;0.50;;;16.20;99.90;;;;;;4991201;28;20028;-75
2022/07/12 00:44:13;;;;;;;2.35;0.63;;;16.10;99.90;;;;;;4994800;28;20029;-75
2022/07/12 00:46:40;;;;;;;1.10;0.50;;;16.10;99.90;;;;;;4981153;28;20464;-75
2022/07/12 00:49:07;;;;;;;1.23;0.60;;;16.10;99.90;;;;;;4995897;28;20033;-75
2022/07/12 00:51:34;;;;;;;1.77;0.50;;;16.10;99.90;;;;;;4974332;28;20032;-75
2022/07/12 00:54:02;;;;;;;0.70;0.50;;;16.10;99.90;;;;;;4993656;28;20469;-75
2022/07/12 00:56:28;;;;;;;1.10;0.70;;;16.10;99.90;;;;;;4975898;28;20017;-75
2022/07/12 00:58:55;;;;;;;1.27;0.50;;;16.00;99.90;;;;;;4977674;28;20017;-75
2022/07/12 01:01:22;;;;;;;1.08;0.60;;;16.00;99.90;;;;;;4970789;28;20025;-75
2022/07/12 01:03:50;;;;;;;0.80;0.50;;;16.00;99.90;;;;;;4993255;28;20025;-76
2022/07/12 01:06:19;;;;;;;0.68;0.40;;;16.00;99.90;;;;;;4980071;28;20033;-75
2022/07/12 01:08:46;;;;;;;2.00;0.50;;;16.00;99.90;;;;;;4992983;28;20067;-75
2022/07/12 01:11:13;;;;;;;1.00;0.55;;;16.00;99.90;;;;;;4976431;28;20044;-75
2022/07/12 01:13:40;;;;;;;1.65;1.00;;;15.90;99.90;;;;;;4965194;28;20025;-75
2022/07/12 01:16:09;;;;;;;1.73;1.25;;;15.90;99.90;;;;;;4998270;28;20037;-75
2022/07/12 01:18:35;;;;;;;1.80;1.40;;;15.90;99.90;;;;;;4984405;28;20325;-75
2022/07/12 01:21:05;;;;;;;1.67;0.73;;;15.90;99.90;;;;;;4995325;28;20036;-75
2022/07/12 01:23:34;;;;;;;1.00;0.60;;;15.90;99.90;;;;;;4967217;28;21094;-76
2022/07/12 01:26:03;;;;;;;1.23;0.70;;;15.90;99.90;;;;;;5000142;28;20400;-82
2022/07/12 01:28:29;;;;;;;1.58;0.85;;;15.80;99.90;;;;;;5000086;28;20029;-81
2022/07/12 01:30:56;;;;;;;1.48;0.70;;;15.80;99.90;;;;;;4993484;28;20033;-81
2022/07/12 01:33:22;;;;;;;1.77;0.60;;;15.80;99.90;;;;;;4999620;28;20481;-82
2022/07/12 01:35:49;;;;;;;1.50;0.80;;;15.80;99.90;;;;;;4983841;28;20030;-81
2022/07/12 01:38:16;;;;;;;0.95;0.63;;;15.80;99.90;;;;;;4968733;28;20045;-76
2022/07/12 01:40:42;;;;;;;0.88;0.60;;;15.80;99.90;;;;;;4994687;28;20025;-74
2022/07/12 01:43:09;;;;;;;2.35;1.17;;;15.80;99.90;;;;;;4983646;28;20053;-74
2022/07/12 01:45:36;;;;;;;1.50;0.50;;;15.80;99.90;;;;;;4985992;28;20021;-75
2022/07/12 01:48:04;;;;;;;1.55;0.73;;;15.80;99.90;;;;;;4986105;28;20043;-74
2022/07/12 01:50:31;;;;;;;1.00;0.60;;;15.80;99.90;;;;;;4996427;28;20017;-74
2022/07/12 01:52:57;;;;;;;1.77;0.80;;;15.70;99.90;;;;;;4982535;28;20369;-74
2022/07/12 01:55:23;;;;;;;1.70;1.00;;;15.70;99.90;;;;;;5000677;28;20770;-74
2022/07/12 01:57:50;;;;;;;1.25;0.90;;;15.70;99.90;;;;;;4969095;28;20036;-75
2022/07/12 02:00:19;;;;;;;1.10;0.75;;;15.70;99.90;;;;;;4964087;28;20025;-74
2022/07/12 02:02:46;;;;;;;1.00;0.70;;;15.70;99.90;;;;;;4998738;28;20041;-77
2022/07/12 02:05:13;;;;;;;1.25;0.80;;;15.70;99.90;;;;;;4983057;28;20564;-77
2022/07/12 02:07:40;;;;;;;1.08;0.70;;;15.70;99.90;;;;;;4985671;28;20041;-77
2022/07/12 02:10:07;;;;;;;1.10;0.60;;;15.60;99.90;;;;;;4997307;28;20040;-77
2022/07/12 02:12:36;;;;;;;1.33;0.77;;;15.60;99.90;;;;;;4972208;28;20030;-76
2022/07/12 02:15:05;;;;;;;0.95;0.65;;;15.60;99.90;;;;;;5000164;28;20389;-76
2022/07/12 02:17:31;;;;;;;3.03;0.65;;;15.60;99.90;;;;;;4986008;28;20473;-77
2022/07/12 02:19:58;;;;;;;1.10;0.70;;;15.60;99.90;;;;;;4983145;28;20054;-77
2022/07/12 02:22:24;;;;;;;2.35;0.80;;;15.60;99.90;;;;;;4986127;28;20029;-76
2022/07/12 02:24:53;;;;;;;1.10;0.63;;;15.50;99.90;;;;;;5003566;28;20041;-77
2022/07/12 02:27:19;;;;;;;1.17;0.80;;;15.50;99.90;;;;;;4986205;28;20044;-77
2022/07/12 02:29:46;;;;;;;1.40;0.88;;;15.40;99.90;;;;;;4956777;28;20396;-77
2022/07/12 02:32:13;;;;;;;1.20;0.73;;;15.40;99.90;;;;;;4967338;28;20041;-76
2022/07/12 02:34:40;;;;;;;1.40;0.88;;;15.40;99.90;;;;;;4983156;28;20029;-76
2022/07/12 02:37:06;;;;;;;1.05;0.65;;;15.40;99.90;;;;;;4968885;28;20032;-77
2022/07/12 02:39:32;;;;;;;1.20;0.70;;;15.40;99.90;;;;;;4968922;28;21507;-77
2022/07/12 02:41:59;;;;;;;3.17;1.35;;;15.40;99.90;;;;;;4980455;28;20070;-77
2022/07/12 02:44:26;;;;;;;3.47;1.27;;;15.40;99.90;;;;;;4968414;28;20048;-76
2022/07/12 02:46:52;;;;;;;1.80;1.13;;;15.40;99.90;;;;;;4969824;28;20396;-77
2022/07/12 02:49:18;;;;;;;2.90;0.90;;;15.40;99.90;;;;;;4969516;28;20038;-77
2022/07/12 02:51:45;;;;;;;1.30;0.90;;;15.30;99.90;;;;;;4981609;28;20013;-77
2022/07/12 02:54:11;;;;;;;1.13;0.80;;;15.30;99.90;;;;;;4967029;28;20025;-77
2022/07/12 02:56:37;;;;;;;1.08;0.70;;;15.30;99.90;;;;;;4971429;28;20669;-76
2022/07/12 02:59:04;;;;;;;0.85;0.63;;;15.30;99.90;;;;;;4956827;28;20037;-77
2022/07/12 03:01:30;;;;;;;1.40;0.68;;;15.30;99.90;;;;;;4948379;28;20033;-82
2022/07/12 03:03:57;;;;;;;1.67;1.00;;;15.30;99.90;;;;;;4984467;28;20049;-83
2022/07/12 03:06:23;;;;;;;1.33;1.08;;;15.30;99.90;;;;;;5019457;28;20041;-83
2022/07/12 03:08:52;;;;;;;1.52;0.90;;;15.30;99.90;;;;;;4987831;28;20033;-82
2022/07/12 03:11:19;;;;;;;1.45;0.90;;;15.20;99.90;;;;;;4982366;28;20033;-83
2022/07/12 03:13:45;;;;;;;1.25;1.00;;;15.20;99.90;;;;;;4985014;28;21484;-82
2022/07/12 03:16:13;;;;;;;1.27;0.90;;;15.20;99.90;;;;;;4970378;28;20029;-83
2022/07/12 03:18:40;;;;;;;2.08;0.90;;;15.20;99.90;;;;;;5002760;28;20033;-82
2022/07/12 03:21:07;;;;;;;1.50;1.10;;;15.20;99.90;;;;;;4967028;28;20111;-82
2022/07/12 03:23:34;;;;;;;1.50;1.17;;;15.20;99.90;;;;;;4983543;28;20033;-82
2022/07/12 03:26:01;;;;;;;4.53;4.07;;;15.20;99.90;;;;;;4972052;28;20041;-82
2022/07/12 03:28:27;;;;;;;17.55;14.32;;;15.20;99.90;;;;;;4969357;28;20044;-82
2022/07/12 03:30:54;;;;;;;18.83;14.93;;;15.20;99.90;;;;;;4996495;28;20401;-76
2022/07/12 03:33:20;;;;;;;15.65;12.15;;;15.20;99.90;;;;;;4982484;28;20017;-76
2022/07/12 03:35:46;;;;;;;20.67;14.95;;;15.20;99.90;;;;;;5000942;28;20029;-76
2022/07/12 03:38:13;;;;;;;13.77;10.80;;;15.20;99.90;;;;;;5002649;28;20037;-76
2022/07/12 03:40:39;;;;;;;13.40;9.65;;;15.20;99.90;;;;;;4979937;28;20033;-76
2022/07/12 03:43:05;;;;;;;8.35;6.80;;;15.20;99.90;;;;;;4998019;28;20036;-77
2022/07/12 03:45:32;;;;;;;5.60;4.82;;;15.20;99.90;;;;;;4984504;28;20029;-76
2022/07/12 03:47:58;;;;;;;6.05;4.78;;;15.10;99.90;;;;;;4968553;28;20060;-81
2022/07/12 03:50:25;;;;;;;4.15;3.75;;;15.10;99.90;;;;;;4998007;28;20052;-81
2022/07/12 03:52:51;;;;;;;5.60;4.72;;;15.10;99.90;;;;;;4999613;28;20024;-82
2022/07/12 03:55:17;;;;;;;4.22;3.50;;;15.10;99.90;;;;;;4968366;28;20040;-81
2022/07/12 03:57:44;;;;;;;3.60;3.30;;;15.10;99.90;;;;;;5000516;28;20026;-81
2022/07/12 04:00:11;;;;;;;2.92;2.63;;;15.10;99.90;;;;;;4999367;28;20476;-81
2022/07/12 04:02:39;;;;;;;2.53;2.33;;;15.10;99.90;;;;;;4988328;28;20401;-80
2022/07/12 04:05:07;;;;;;;2.40;1.92;;;15.10;99.90;;;;;;5001029;28;20369;-80
2022/07/12 04:07:33;;;;;;;2.58;1.52;;;15.20;99.90;;;;;;4985191;28;20030;-81
2022/07/12 04:09:59;;;;;;;2.95;2.05;;;15.20;99.90;;;;;;4996995;28;20432;-81
2022/07/12 04:12:26;;;;;;;2.53;2.00;;;15.20;99.90;;;;;;4973427;28;20469;-81
2022/07/12 04:14:52;;;;;;;2.53;1.50;;;15.30;99.90;;;;;;5003636;28;20033;-80
2022/07/12 04:17:19;;;;;;;2.38;2.17;;;15.30;99.90;;;;;;4974913;28;20037;-81
2022/07/12 04:19:45;;;;;;;1.77;1.60;;;15.30;99.90;;;;;;5003093;28;20025;-80
2022/07/12 04:22:11;;;;;;;1.98;1.70;;;15.40;99.90;;;;;;4999627;28;20055;-80
2022/07/12 04:24:38;;;;;;;2.22;1.45;;;15.50;99.90;;;;;;4999497;28;20999;-81
2022/07/12 04:27:04;;;;;;;2.33;2.13;;;15.50;99.90;;;;;;5000006;28;20037;-80
2022/07/12 04:29:31;;;;;;;2.25;1.80;;;15.60;99.90;;;;;;4982414;28;20048;-77
2022/07/12 04:31:57;;;;;;;2.83;2.45;;;15.60;99.90;;;;;;4966362;28;20028;-76
2022/07/12 04:34:23;;;;;;;2.17;1.90;;;15.70;99.90;;;;;;5001265;28;20592;-76
2022/07/12 04:36:50;;;;;;;3.38;2.00;;;15.70;99.90;;;;;;5000503;28;20029;-77
2022/07/12 04:39:16;;;;;;;2.10;1.90;;;15.80;99.90;;;;;;4983578;28;20031;-77
2022/07/12 04:41:43;;;;;;;2.65;2.35;;;15.90;99.90;;;;;;4961945;28;20038;-78
2022/07/12 04:44:09;;;;;;;4.43;3.88;;;16.00;99.90;;;;;;4965670;28;20028;-77
2022/07/12 04:46:35;;;;;;;3.92;3.55;;;16.20;99.90;;;;;;5000055;28;20040;-77
2022/07/12 04:49:02;;;;;;;3.40;3.10;;;16.20;99.90;;;;;;4968462;28;20614;-77
2022/07/12 04:51:29;;;;;;;3.75;3.45;;;16.40;99.90;;;;;;4962000;28;20040;-76
2022/07/12 04:53:55;;;;;;;2.70;2.50;;;16.60;99.90;;;;;;4998438;28;20033;-77
2022/07/12 04:56:22;;;;;;;2.63;2.42;;;16.70;99.90;;;;;;4998075;28;20025;-77
2022/07/12 04:58:48;;;;;;;3.17;2.88;;;16.80;99.90;;;;;;5000461;28;20033;-77
2022/07/12 05:01:16;;;;;;;2.85;2.65;;;17.10;99.90;;;;;;4949426;28;20041;-77
2022/07/12 05:03:43;;;;;;;3.05;2.65;;;17.20;99.90;;;;;;4965102;28;20037;-77
2022/07/12 05:06:12;;;;;;;3.05;2.70;;;17.40;99.90;;;;;;4999157;28;20060;-77
2022/07/12 05:08:38;;;;;;;2.90;2.70;;;17.50;99.90;;;;;;4982710;28;20047;-77
2022/07/12 05:11:05;;;;;;;2.65;2.28;;;17.70;99.90;;;;;;4977881;28;20041;-76
2022/07/12 05:13:32;;;;;;;3.25;2.95;;;17.80;99.90;;;;;;4998598;28;20029;-77
2022/07/12 05:15:58;;;;;;;3.35;3.05;;;18.00;99.90;;;;;;4964995;28;20041;-76
2022/07/12 05:18:25;;;;;;;3.35;2.50;;;18.10;99.90;;;;;;4980870;28;20041;-77
2022/07/12 05:20:51;;;;;;;6.13;5.43;;;18.20;99.90;;;;;;4994701;28;20038;-77
2022/07/12 05:23:18;;;;;;;9.30;8.02;;;18.40;99.90;;;;;;4995536;28;20033;-76
2022/07/12 05:25:46;;;;;;;5.40;4.90;;;18.50;99.90;;;;;;4999372;28;20036;-77
2022/07/12 05:28:15;;;;;;;5.50;4.28;;;18.60;99.90;;;;;;4999362;28;20040;-77
2022/07/12 05:30:43;;;;;;;4.07;3.63;;;18.80;99.90;;;;;;4995190;28;20481;-77
2022/07/12 05:33:10;;;;;;;2.72;2.53;;;18.90;99.90;;;;;;4979688;28;20408;-77
2022/07/12 05:35:37;;;;;;;4.78;4.32;;;19.10;99.90;;;;;;4998637;28;20056;-82
2022/07/12 05:38:04;;;;;;;4.25;3.95;;;19.30;99.90;;;;;;4997469;28;20033;-82
2022/07/12 05:40:30;;;;;;;6.30;5.80;;;19.40;99.90;;;;;;4994176;28;20033;-82
2022/07/12 05:42:58;;;;;;;4.82;4.40;;;19.70;99.90;;;;;;4996280;28;20041;-82
2022/07/12 05:45:25;;;;;;;4.75;4.35;;;19.80;99.90;;;;;;4983825;28;20448;-85
2022/07/12 05:47:52;;;;;;;4.38;4.07;;;19.90;99.90;;;;;;4979574;28;20800;-83
2022/07/12 05:50:18;;;;;;;5.55;4.05;;;19.80;99.90;;;;;;5015970;28;20041;-82
2022/07/12 05:55:30;;;;;;;3.67;3.38;;;19.70;99.90;;;;;;5002769;28;20037;-76
2022/07/12 05:57:56;;;;;;;3.85;3.55;;;19.60;99.90;;;;;;4983564;28;20030;-76
2022/07/12 06:00:23;;;;;;;4.13;3.83;;;19.70;99.90;;;;;;4992941;28;20025;-77
2022/07/12 06:02:49;;;;;;;4.07;3.75;;;19.80;99.90;;;;;;4961689;28;20026;-77
2022/07/12 06:05:19;;;;;;;4.88;4.40;;;20.10;99.90;;;;;;4989088;28;20040;-82
2022/07/12 06:07:46;;;;;;;4.47;4.07;;;20.30;99.90;;;;;;4986795;28;20052;-82
2022/07/12 06:10:13;;;;;;;4.85;4.45;;;20.60;99.90;;;;;;4968450;28;20045;-83
2022/07/12 06:12:39;;;;;;;5.80;5.30;;;20.90;99.90;;;;;;4989632;28;20021;-82
2022/07/12 06:15:06;;;;;;;5.43;4.90;;;21.20;99.90;;;;;;5003847;28;20092;-77
2022/07/12 06:17:34;;;;;;;5.38;4.88;;;21.40;99.90;;;;;;5003231;28;20029;-76
2022/07/12 06:20:00;;;;;;;4.22;3.83;;;21.70;99.90;;;;;;4983552;28;20049;-83
2022/07/12 06:22:27;;;;;;;3.63;3.00;;;21.90;99.90;;;;;;4987881;28;20040;-83
2022/07/12 06:24:56;;;;;;;3.65;2.40;;;22.10;99.90;;;;;;4989046;28;20521;-77
2022/07/12 06:27:22;;;;;;;2.90;2.60;;;22.30;99.90;;;;;;4972735;28;20037;-83
2022/07/12 06:29:49;;;;;;;2.72;2.53;;;22.40;99.90;;;;;;4983716;28;20519;-83
2022/07/12 06:32:18;;;;;;;3.03;2.70;;;22.40;99.90;;;;;;4956876;28;20021;-83
2022/07/12 06:34:45;;;;;;;2.58;2.38;;;22.50;99.90;;;;;;5008322;28;20021;-83
2022/07/12 06:37:12;;;;;;;3.28;2.80;;;22.50;99.90;;;;;;4985096;28;20487;-83
2022/07/12 06:39:39;;;;;;;3.00;1.98;;;22.60;99.90;;;;;;4953330;28;20033;-83
2022/07/12 06:42:06;;;;;;;3.22;2.92;;;22.60;99.90;;;;;;5000995;28;20028;-82
2022/07/12 06:44:33;;;;;;;4.03;3.20;;;22.70;99.90;;;;;;4970321;28;20029;-83
2022/07/12 06:46:59;;;;;;;2.83;2.42;;;22.70;99.90;;;;;;4985523;28;20033;-77
2022/07/12 06:49:26;;;;;;;2.22;1.95;;;22.60;99.90;;;;;;4986121;28;20373;-76
2022/07/12 06:51:52;;;;;;;2.72;2.33;;;22.50;99.90;;;;;;4997633;28;20030;-76
2022/07/12 06:54:19;;;;;;;3.38;2.10;;;22.50;99.90;;;;;;4987928;28;20520;-77
2022/07/12 06:56:45;;;;;;;2.50;2.30;;;22.40;99.90;;;;;;4987804;28;20034;-77
2022/07/12 06:59:12;;;;;;;4.00;2.97;;;22.40;99.90;;;;;;4957718;28;20028;-76
2022/07/12 07:01:38;;;;;;;2.03;1.60;;;22.40;99.90;;;;;;4997476;28;20036;-82
2022/07/12 07:04:04;;;;;;;2.35;1.02;;;22.40;99.90;;;;;;5002273;28;20049;-76
2022/07/12 07:06:31;;;;;;;4.32;1.30;;;22.50;99.90;;;;;;4984590;28;20029;-81
2022/07/12 07:08:57;;;;;;;1.80;1.65;;;22.70;99.90;;;;;;4984117;28;20044;-82
2022/07/12 07:11:24;;;;;;;2.65;1.40;;;23.00;99.90;;;;;;4979426;28;20032;-82
2022/07/12 07:13:51;;;;;;;1.20;1.00;;;23.20;99.90;;;;;;4968013;28;20051;-82
2022/07/12 07:16:20;;;;;;;3.58;1.33;;;23.40;99.90;;;;;;5001646;28;20433;-76
2022/07/12 07:18:46;;;;;;;2.28;1.30;;;23.70;99.90;;;;;;4984189;28;20037;-76
2022/07/12 07:21:12;;;;;;;3.17;1.20;;;24.00;99.90;;;;;;4962585;28;20045;-76
2022/07/12 07:23:39;;;;;;;2.95;1.15;;;24.30;99.90;;;;;;4998889;28;20038;-75
2022/07/12 07:26:05;;;;;;;1.92;1.10;;;24.50;99.90;;;;;;4984547;28;20045;-77
2022/07/12 07:28:32;;;;;;;4.20;0.90;;;24.70;99.90;;;;;;5001181;28;20048;-76
2022/07/12 07:30:59;;;;;;;1.13;0.70;;;25.10;99.90;;;;;;4978717;28;20045;-76
2022/07/12 07:33:25;;;;;;;2.35;1.00;;;25.40;99.90;;;;;;4999291;28;20037;-81
2022/07/12 07:35:52;;;;;;;1.17;0.65;;;25.60;99.90;;;;;;4997876;28;20047;-81
2022/07/12 07:38:19;;;;;;;1.88;1.60;;;25.80;99.90;;;;;;4985166;28;20048;-75
2022/07/12 07:40:46;;;;;;;1.70;1.17;;;25.90;99.90;;;;;;4994143;28;20047;-76
2022/07/12 07:43:12;;;;;;;1.38;1.05;;;26.10;99.90;;;;;;4983382;28;20060;-76
2022/07/12 07:45:39;;;;;;;3.40;1.50;;;26.20;99.90;;;;;;5001506;28;20052;-76
2022/07/12 07:48:05;;;;;;;2.58;1.30;;;26.10;99.90;;;;;;4985157;28;20025;-76
2022/07/12 07:50:32;;;;;;;2.28;0.90;;;25.90;99.90;;;;;;4995978;28;20489;-76
2022/07/12 07:52:58;;;;;;;3.28;1.15;;;25.70;99.90;;;;;;4998630;28;20044;-76
2022/07/12 07:55:25;;;;;;;1.58;1.00;;;25.50;99.90;;;;;;5001756;28;20028;-81
2022/07/12 07:57:51;;;;;;;1.70;0.85;;;25.30;99.90;;;;;;4954383;28;20029;-82
2022/07/12 08:00:17;;;;;;;4.78;1.98;;;25.10;99.90;;;;;;4982408;28;20036;-82
2022/07/12 08:02:44;;;;;;;2.30;1.83;;;25.00;99.90;;;;;;5001397;28;20025;-82
2022/07/12 08:05:10;;;;;;;1.50;1.15;;;25.00;99.90;;;;;;4968709;28;20354;-82
2022/07/12 08:07:36;;;;;;;3.85;3.45;;;25.10;99.90;;;;;;5005946;28;20034;-82
2022/07/12 08:10:03;;;;;;;2.60;1.73;;;25.20;99.90;;;;;;4983358;28;20068;-83
2022/07/12 08:12:29;;;;;;;1.92;1.55;;;25.30;99.90;;;;;;5000900;28;20036;-80
2022/07/12 08:14:56;;;;;;;1.70;1.25;;;25.40;99.90;;;;;;5011912;28;20025;-81
2022/07/12 08:17:22;;;;;;;1.58;1.27;;;25.50;99.90;;;;;;5000815;28;20033;-75
2022/07/12 08:19:49;;;;;;;2.47;1.10;;;25.40;99.90;;;;;;4982928;28;20034;-80
2022/07/12 08:22:15;;;;;;;3.22;1.05;;;25.40;99.90;;;;;;4968442;28;20048;-81
2022/07/12 08:24:41;;;;;;;2.33;1.17;;;25.30;99.90;;;;;;4967150;28;20042;-80
2022/07/12 08:27:08;;;;;;;1.50;1.00;;;25.20;99.90;;;;;;4988667;28;20472;-81
2022/07/12 08:29:34;;;;;;;1.73;1.10;;;25.30;99.90;;;;;;5002881;28;20048;-75
2022/07/12 08:32:01;;;;;;;1.65;0.85;;;25.40;99.90;;;;;;4966637;28;20033;-75
2022/07/12 08:34:27;;;;;;;1.25;0.77;;;25.60;99.90;;;;;;4987722;28;20026;-75
2022/07/12 08:36:54;;;;;;;0.95;0.65;;;25.80;99.90;;;;;;4985814;28;20450;-75
2022/07/12 08:39:20;;;;;;;1.45;1.08;;;25.90;99.90;;;;;;5004257;28;20025;-75
2022/07/12 08:41:46;;;;;;;1.80;0.50;;;25.90;99.90;;;;;;5001749;28;20385;-75
2022/07/12 08:44:13;;;;;;;1.25;1.02;;;26.00;99.90;;;;;;5004332;28;20060;-82
2022/07/12 08:46:39;;;;;;;3.30;0.80;;;26.10;99.60;;;;;;4974064;28;20040;-80
2022/07/12 08:49:09;;;;;;;1.55;0.70;;;26.10;99.20;;;;;;5005497;28;20056;-80
2022/07/12 08:51:36;;;;;;;0.85;0.60;;;26.10;99.10;;;;;;4998876;28;20029;-81
2022/07/12 08:54:13;;;;;;;1.63;0.70;;;26.10;99.00;;;;;;4989020;28;20350;-79
2022/07/12 08:56:43;;;;;;;1.63;1.50;;;26.20;98.30;;;;;;5000358;28;20500;-80
2022/07/12 08:59:20;;;;;;;0.90;0.60;;;26.40;97.50;;;;;;4987603;28;20034;-80
2022/07/12 09:01:50;;;;;;;1.20;0.57;;;26.50;97.40;;;;;;4982220;28;20531;-80
2022/07/12 09:04:27;;;;;;;1.63;0.60;;;26.70;97.40;;;;;;5000950;28;20026;-81
2022/07/12 09:06:54;;;;;;;1.50;0.60;;;27.00;97.10;;;;;;5002230;28;20032;-80
2022/07/12 09:09:27;;;;;;;1.50;0.60;;;27.10;96.90;;;;;;4969809;28;21361;-80
2022/07/12 09:11:54;;;;;;;0.80;0.47;;;27.30;96.80;;;;;;4983785;28;20033;-75
2022/07/12 09:14:20;;;;;;;0.75;0.47;;;27.30;96.30;;;;;;4981824;28;20056;-75
2022/07/12 09:17:15;;;;;;;1.10;0.68;;;27.50;96.10;;;;;;5003794;28;20018;-75
2022/07/12 09:19:55;;;;;;;1.10;0.63;;;27.80;95.80;;;;;;4979717;28;20044;-75
2022/07/12 09:22:22;;;;;;;1.50;1.10;;;28.00;95.10;;;;;;4980955;28;20040;-75
2022/07/12 09:24:48;;;;;;;2.65;0.55;;;28.00;94.30;;;;;;4998878;28;20033;-75
2022/07/12 09:27:15;;;;;;;1.42;0.50;;;28.10;94.20;;;;;;4986755;28;20033;-75
2022/07/12 09:29:49;;;;;;;0.90;0.50;;;28.20;93.80;;;;;;5001650;28;20045;-75
2022/07/12 09:37:49;;;;;;;1.85;0.60;;;28.50;92.80;;;;;;5002345;28;20025;-76
2022/07/12 09:40:16;;;;;;;1.50;0.60;;;28.60;92.20;;;;;;4998509;28;20052;-76
2022/07/12 09:42:42;;;;;;;1.20;0.40;;;28.60;92.10;;;;;;5004303;28;20535;-76
2022/07/12 09:45:10;;;;;;;0.63;0.43;;;28.70;92.40;;;;;;5005133;28;20029;-80
2022/07/12 09:47:37;;;;;;;0.88;0.60;;;28.80;92.10;;;;;;5004637;28;20034;-76
2022/07/12 09:50:06;;;;;;;2.55;0.60;;;28.90;91.90;;;;;;4999264;28;20037;-75
2022/07/12 09:52:36;;;;;;;3.42;0.77;;;29.00;91.50;;;;;;4986325;28;20040;-76
2022/07/12 09:55:03;;;;;;;4.70;0.40;;;29.00;91.20;;;;;;4986943;28;21591;-76
2022/07/12 09:57:31;;;;;;;0.95;0.45;;;28.90;91.10;;;;;;5004189;28;20033;-77
2022/07/12 09:59:59;;;;;;;1.25;0.73;;;29.00;91.10;;;;;;4984284;28;20038;-76
2022/07/12 10:02:27;;;;;;;1.13;0.57;;;29.10;90.90;;;;;;4985868;28;20060;-76
2022/07/12 10:04:55;;;;;;;0.93;0.40;;;29.20;90.30;;;;;;4987028;28;20040;-76
2022/07/12 10:07:21;;;;;;;1.20;0.50;;;29.20;90.40;;;;;;4985762;28;20576;-76
2022/07/12 10:09:53;;;;;;;0.77;0.38;;;29.30;90.00;;;;;;5001892;28;20044;-75
2022/07/12 10:12:21;;;;;;;0.43;0.30;;;29.40;90.00;;;;;;5001628;28;20385;-81
2022/07/12 10:15:01;;;;;;;2.38;0.50;;;29.50;89.60;;;;;;4986062;28;20050;-81
2022/07/12 10:17:29;;;;;;;1.38;0.80;;;29.60;89.00;;;;;;5003082;28;20022;-80
2022/07/12 10:20:23;;;;;;;0.65;0.40;;;29.60;88.20;;;;;;4998859;28;20064;-81
2022/07/12 10:23:10;;;;;;;0.65;0.50;;;29.70;88.00;;;;;;4984415;28;20038;-81
2022/07/12 10:25:37;;;;;;;2.17;0.40;;;29.80;87.30;;;;;;4987488;28;20056;-81
2022/07/12 10:28:03;;;;;;;2.05;0.43;;;30.00;87.10;;;;;;4987065;28;20037;-81
2022/07/12 10:30:31;;;;;;;1.45;0.40;;;30.10;86.50;;;;;;4981065;28;20067;-80
2022/07/12 10:33:00;;;;;;;0.60;0.40;;;30.30;85.90;;;;;;4985692;28;20104;-76
2022/07/12 10:35:31;;;;;;;0.65;0.40;;;30.30;85.80;;;;;;5003387;28;20481;-76
2022/07/12 10:38:12;;;;;;;2.35;0.40;;;30.50;85.20;;;;;;4984643;28;20529;-76
2022/07/12 10:40:40;;;;;;;0.60;0.30;;;30.60;84.60;;;;;;4997034;28;20013;-75
2022/07/12 10:43:07;;;;;;;2.00;0.40;;;30.70;83.60;;;;;;4985169;28;20030;-75
2022/07/12 10:45:38;;;;;;;3.22;0.40;;;30.90;83.30;;;;;;5003629;28;20044;-76
2022/07/12 10:48:05;;;;;;;1.13;0.52;;;31.10;80.70;;;;;;5015700;28;20029;-76
2022/07/12 10:50:43;;;;;;;0.77;0.30;;;31.20;80.70;;;;;;4994743;28;20038;-76
2022/07/12 10:53:19;;;;;;;0.55;0.20;;;31.40;80.50;;;;;;4985170;28;20435;-76
2022/07/12 10:56:06;;;;;;;0.98;0.30;;;31.60;80.00;;;;;;5004326;28;20026;-76
2022/07/12 10:58:52;;;;;;;0.55;0.30;;;32.00;78.40;;;;;;5005838;28;20037;-76
2022/07/12 11:01:19;;;;;;;1.27;0.20;;;32.40;77.30;;;;;;4979823;28;20032;-82
2022/07/12 11:03:50;;;;;;;0.50;0.30;;;32.60;76.50;;;;;;4999195;28;20025;-81
2022/07/12 11:06:19;;;;;;;0.47;0.30;;;32.80;75.60;;;;;;5002850;28;20025;-81
2022/07/12 11:08:59;;;;;;;0.80;0.22;;;33.00;73.90;;;;;;5000773;28;20025;-82
2022/07/12 11:11:31;;;;;;;0.93;0.55;;;33.20;73.70;;;;;;4979705;28;20049;-82
2022/07/12 11:14:00;;;;;;;1.00;0.40;;;33.60;72.60;;;;;;5002253;28;20033;-81
2022/07/12 11:16:30;;;;;;;0.75;0.40;;;33.70;70.30;;;;;;4998897;28;20033;-76
2022/07/12 11:18:56;;;;;;;1.13;0.30;;;34.10;69.40;;;;;;4970843;28;20048;-76
2022/07/12 11:21:24;;;;;;;0.77;0.32;;;34.30;67.90;;;;;;4963417;28;20398;-76
2022/07/12 11:23:51;;;;;;;1.27;0.32;;;34.40;67.90;;;;;;4985495;28;20017;-82
2022/07/12 11:26:18;;;;;;;0.73;0.45;;;34.60;67.00;;;;;;5003222;28;20025;-82
2022/07/12 11:28:47;;;;;;;2.08;0.40;;;34.60;65.10;;;;;;4986377;28;20033;-81
2022/07/12 11:31:15;;;;;;;1.15;0.80;;;34.60;65.10;;;;;;4981118;28;20048;-82
2022/07/12 11:33:47;;;;;;;1.73;0.38;;;34.80;63.90;;;;;;5001878;28;20030;-82
2022/07/12 11:36:14;;;;;;;0.60;0.40;;;34.90;63.80;;;;;;5002680;28;20465;-81
2022/07/12 11:38:43;;;;;;;1.05;0.40;;;35.10;63.50;;;;;;5003239;28;20033;-81
2022/07/12 11:41:13;;;;;;;0.75;0.40;;;35.30;63.10;;;;;;4997869;28;20036;-82
2022/07/12 11:43:43;;;;;;;1.17;0.40;;;35.40;62.20;;;;;;4958383;28;20044;-83
2022/07/12 11:46:15;;;;;;;1.35;1.15;;;35.50;61.00;;;;;;5016736;28;20295;-84
2022/07/12 11:48:43;;;;;;;2.22;1.08;;;35.80;61.20;;;;;;5001358;28;20038;-83
2022/07/12 11:51:13;;;;;;;1.52;0.60;;;36.20;60.20;;;;;;4995547;28;20041;-83
2022/07/12 11:53:41;;;;;;;1.08;0.43;;;36.60;58.40;;;;;;5001467;28;20026;-83
2022/07/12 11:56:09;;;;;;;1.15;0.82;;;36.70;56.50;;;;;;5020414;28;20037;-82
2022/07/12 11:58:39;;;;;;;0.98;0.40;;;36.60;56.00;;;;;;4985380;28;20046;-84
2022/07/12 12:01:10;;;;;;;0.77;0.43;;;36.50;56.30;;;;;;4999374;28;20467;-85
2022/07/12 12:03:45;;;;;;;2.50;0.50;;;36.60;56.30;;;;;;4999002;28;20029;-84
2022/07/12 12:06:11;;;;;;;1.25;0.77;;;36.60;55.70;;;;;;5002467;28;20041;-79
2022/07/12 12:08:38;;;;;;;2.28;0.60;;;36.60;55.30;;;;;;5003357;28;20041;-78
2022/07/12 12:11:07;;;;;;;0.45;0.40;;;36.60;55.90;;;;;;4996883;28;20056;-78
2022/07/12 12:13:34;;;;;;;2.28;0.50;;;36.70;56.00;;;;;;4997869;28;20037;-79
2022/07/12 12:16:02;;;;;;;2.40;0.70;;;37.00;55.90;;;;;;5000612;28;20053;-79
2022/07/12 12:18:38;;;;;;;2.97;0.50;;;37.20;54.90;;;;;;4985710;28;20060;-79
2022/07/12 12:21:11;;;;;;;0.77;0.40;;;37.50;54.80;;;;;;4997019;28;20207;-78
2022/07/12 12:23:40;;;;;;;4.32;0.60;;;37.80;54.70;;;;;;4999218;28;20033;-78
2022/07/12 12:26:10;;;;;;;3.55;1.23;;;38.10;53.90;;;;;;4955389;28;20037;-78
2022/07/12 12:28:47;;;;;;;2.03;1.10;;;38.20;52.80;;;;;;4999606;28;20052;-78
2022/07/12 12:31:16;;;;;;;3.10;2.72;;;38.20;53.10;;;;;;4980472;28;20038;-78
2022/07/12 12:33:51;;;;;;;2.05;1.23;;;38.50;52.70;;;;;;4965997;28;20044;-78
2022/07/12 12:36:26;;;;;;;2.03;1.50;;;38.80;51.20;;;;;;4983705;28;20053;-78
2022/07/12 12:38:58;;;;;;;2.00;1.73;;;38.80;51.00;;;;;;4984940;28;20052;-79
2022/07/12 12:41:26;;;;;;;1.98;0.90;;;38.90;51.70;;;;;;4966140;28;20037;-78
2022/07/12 12:44:00;;;;;;;0.90;0.50;;;39.10;50.70;;;;;;5001604;28;20598;-79
2022/07/12 12:46:53;;;;;;;1.52;0.40;;;39.00;50.20;;;;;;4984710;28;20033;-86
2022/07/12 12:49:19;;;;;;;3.00;0.30;;;38.80;49.80;;;;;;4971853;28;20032;-86
2022/07/12 12:51:58;;;;;;;2.65;0.77;;;38.90;49.30;;;;;;4979653;28;21970;-79
2022/07/12 12:54:34;;;;;;;0.77;0.52;;;39.00;48.70;;;;;;4972339;28;20046;-79
2022/07/12 12:57:01;;;;;;;0.80;0.40;;;38.90;48.90;;;;;;5000510;28;20709;-77